Time;durP1;ratioP1;P1;durP2;ratioP2;P2;SDS_P1;SDS_P2;PMS_P1;PMS_P2;Temp;Humidity;BMP_temperature;BMP_pressure;BME280_temperature;BME280_humidity;BME280_pressure;Samples;Min_cycle;Max_cycle;Signal;HPM_P1;HPM_P2
2023/09/17 00:00:24;;;;;;;186.68;177.60;;;;;;;;;;5020478;28;20474;-63
2023/09/17 00:02:49;;;;;;;169.95;161.68;;;;;;;;;;5039064;28;20441;-62
2023/09/17 00:05:15;;;;;;;192.73;183.30;;;;;;;;;;5021158;28;20029;-62
2023/09/17 00:07:41;;;;;;;191.27;181.88;;;;;;;;;;5038066;28;20048;-62
2023/09/17 00:10:07;;;;;;;238.38;226.90;;;;;;;;;;5026816;28;20041;-62
2023/09/17 00:12:33;;;;;;;246.65;234.50;;;;;;;;;;5036015;28;20033;-62
2023/09/17 00:15:02;;;;;;;203.50;193.57;;;;;;;;;;5040855;28;20033;-62
2023/09/17 00:17:28;;;;;;;194.48;185.02;;;;;;;;;;5034774;28;20052;-62
2023/09/17 00:19:53;;;;;;;187.90;178.73;;;;;;;;;;5038474;28;20049;-62
2023/09/17 00:22:19;;;;;;;209.50;199.18;;;;;;;;;;5019585;28;20035;-62
2023/09/17 00:24:44;;;;;;;231.93;220.55;;;;;;;;;;5037291;28;20087;-62
2023/09/17 00:27:10;;;;;;;199.10;189.35;;;;;;;;;;5040021;28;20033;-67
2023/09/17 00:29:36;;;;;;;192.57;183.13;;;;;;;;;;5010166;28;20040;-67
2023/09/17 00:32:02;;;;;;;210.32;199.98;;;;;;;;;;5024718;28;20029;-66
2023/09/17 00:34:28;;;;;;;222.55;211.60;;;;;;;;;;5035244;28;20120;-62
2023/09/17 00:36:54;;;;;;;188.73;179.25;;;;;;;;;;5040138;28;20145;-62
2023/09/17 00:39:19;;;;;;;171.20;162.35;;;;;;;;;;5038427;28;20033;-66
2023/09/17 00:41:45;;;;;;;176.32;167.50;;;;;;;;;;5039928;28;20542;-66
2023/09/17 00:44:11;;;;;;;162.32;154.02;;;;;;;;;;5038440;28;20028;-66
2023/09/17 00:46:37;;;;;;;148.52;141.05;;;;;;;;;;5036421;28;20415;-66
2023/09/17 00:49:04;;;;;;;136.90;130.05;;;;;;;;;;5038451;28;20043;-62
2023/09/17 00:51:30;;;;;;;131.73;125.05;;;;;;;;;;5037597;28;20119;-67
2023/09/17 00:53:57;;;;;;;142.82;135.60;;;;;;;;;;5023221;28;20479;-63
2023/09/17 00:56:25;;;;;;;114.35;108.55;;;;;;;;;;5036394;28;20047;-63
2023/09/17 00:58:51;;;;;;;104.70;99.40;;;;;;;;;;5037275;28;20055;-66
2023/09/17 01:01:16;;;;;;;123.85;117.60;;;;;;;;;;5038531;28;20356;-62
2023/09/17 01:03:42;;;;;;;116.40;110.47;;;;;;;;;;5038541;28;20041;-66
2023/09/17 01:06:10;;;;;;;125.20;118.82;;;;;;;;;;5036612;28;20028;-63
2023/09/17 01:08:37;;;;;;;132.13;125.50;;;;;;;;;;5036256;28;20029;-63
2023/09/17 01:11:03;;;;;;;133.73;126.97;;;;;;;;;;5021408;28;20065;-63
2023/09/17 01:13:30;;;;;;;136.48;129.63;;;;;;;;;;5034888;28;20029;-68
2023/09/17 01:15:59;;;;;;;116.53;110.57;;;;;;;;;;5035419;28;20033;-64
2023/09/17 01:18:27;;;;;;;135.60;128.80;;;;;;;;;;5039795;28;20043;-67
2023/09/17 01:21:10;;;;;;;140.25;133.15;;;;;;;;;;5036054;28;20029;-67
2023/09/17 01:23:46;;;;;;;128.55;121.85;;;;;;;;;;5036394;28;20037;-63
2023/09/17 01:26:27;;;;;;;124.78;118.38;;;;;;;;;;5035701;28;20087;-67
2023/09/17 01:28:54;;;;;;;98.97;93.85;;;;;;;;;;5031433;28;20040;-67
2023/09/17 01:31:21;;;;;;;115.63;109.65;;;;;;;;;;5038591;28;20341;-67
2023/09/17 01:33:51;;;;;;;121.68;115.57;;;;;;;;;;5036106;28;20708;-63
2023/09/17 01:36:27;;;;;;;95.28;90.45;;;;;;;;;;5038958;28;20063;-64
2023/09/17 01:39:03;;;;;;;112.30;106.57;;;;;;;;;;5036008;28;20710;-64
2023/09/17 01:41:30;;;;;;;106.90;101.50;;;;;;;;;;5021763;28;20041;-64
2023/09/17 01:43:55;;;;;;;123.35;117.13;;;;;;;;;;5038031;28;20029;-63
2023/09/17 01:46:22;;;;;;;101.95;96.63;;;;;;;;;;5037860;28;20041;-64
2023/09/17 01:48:49;;;;;;;106.28;100.90;;;;;;;;;;5035105;28;20057;-64
2023/09/17 01:51:15;;;;;;;110.13;104.53;;;;;;;;;;5037840;28;20068;-64
2023/09/17 01:53:41;;;;;;;112.03;106.30;;;;;;;;;;5021040;28;20095;-63
2023/09/17 01:56:07;;;;;;;114.75;108.90;;;;;;;;;;5037365;28;20037;-64
2023/09/17 01:58:33;;;;;;;119.78;113.72;;;;;;;;;;5037435;28;20028;-67
2023/09/17 02:00:59;;;;;;;113.32;107.55;;;;;;;;;;5037750;28;20075;-64
2023/09/17 02:03:25;;;;;;;99.57;94.47;;;;;;;;;;5035157;28;20064;-64
2023/09/17 02:05:50;;;;;;;113.35;107.57;;;;;;;;;;5036015;28;21564;-67
2023/09/17 02:08:16;;;;;;;103.32;98.05;;;;;;;;;;5036534;28;20052;-68
2023/09/17 02:10:41;;;;;;;105.70;100.07;;;;;;;;;;5036232;28;20120;-67
2023/09/17 02:13:07;;;;;;;93.70;88.95;;;;;;;;;;5038469;28;20037;-68
2023/09/17 02:15:32;;;;;;;95.65;90.82;;;;;;;;;;5038709;28;20800;-67
2023/09/17 02:17:58;;;;;;;102.57;97.38;;;;;;;;;;5039464;28;20036;-67
2023/09/17 02:20:23;;;;;;;109.28;103.75;;;;;;;;;;5038161;28;20459;-67
2023/09/17 02:22:50;;;;;;;106.32;100.90;;;;;;;;;;5022801;28;20033;-67
2023/09/17 02:25:16;;;;;;;107.38;101.88;;;;;;;;;;5036791;28;20033;-67
2023/09/17 02:27:41;;;;;;;110.53;104.90;;;;;;;;;;5037161;28;20103;-69
2023/09/17 02:30:08;;;;;;;101.47;96.35;;;;;;;;;;5040765;28;20364;-68
2023/09/17 02:32:33;;;;;;;113.07;107.40;;;;;;;;;;5042139;28;20087;-67
2023/09/17 02:35:00;;;;;;;110.68;105.07;;;;;;;;;;5041847;28;20036;-67
2023/09/17 02:37:26;;;;;;;107.60;102.18;;;;;;;;;;5039367;28;20668;-66
2023/09/17 02:39:51;;;;;;;100.10;95.00;;;;;;;;;;5040248;28;20155;-67
2023/09/17 02:42:17;;;;;;;111.18;105.57;;;;;;;;;;5038825;28;20194;-67
2023/09/17 02:44:43;;;;;;;106.25;100.85;;;;;;;;;;5041060;28;20094;-66
2023/09/17 02:47:09;;;;;;;103.28;98.03;;;;;;;;;;5042251;28;20337;-67
2023/09/17 02:49:35;;;;;;;103.05;97.82;;;;;;;;;;5025820;28;20445;-66
2023/09/17 02:52:00;;;;;;;100.95;95.75;;;;;;;;;;5042798;28;20037;-67
2023/09/17 02:54:26;;;;;;;98.88;93.85;;;;;;;;;;5043130;28;20103;-67
2023/09/17 02:56:52;;;;;;;102.60;97.43;;;;;;;;;;5025565;28;20071;-67
2023/09/17 02:59:17;;;;;;;102.10;96.85;;;;;;;;;;5037062;28;20459;-66
2023/09/17 03:01:43;;;;;;;100.28;95.10;;;;;;;;;;5040271;28;20051;-66
2023/09/17 03:04:08;;;;;;;92.32;87.60;;;;;;;;;;5040732;28;20123;-67
2023/09/17 03:06:34;;;;;;;100.00;94.90;;;;;;;;;;5040550;28;20195;-67
2023/09/17 03:08:59;;;;;;;87.32;82.72;;;;;;;;;;5040354;28;20037;-68
2023/09/17 03:11:26;;;;;;;93.38;88.60;;;;;;;;;;5023530;28;20036;-67
2023/09/17 03:13:52;;;;;;;88.80;84.15;;;;;;;;;;5024923;28;20041;-63
2023/09/17 03:16:18;;;;;;;89.60;85.03;;;;;;;;;;5042665;28;20048;-63
2023/09/17 03:18:45;;;;;;;88.93;84.25;;;;;;;;;;5041876;28;20047;-63
2023/09/17 03:21:11;;;;;;;86.05;81.65;;;;;;;;;;5040449;28;20407;-63
2023/09/17 03:23:37;;;;;;;88.10;83.60;;;;;;;;;;5038101;28;20460;-68
2023/09/17 03:26:03;;;;;;;86.57;82.10;;;;;;;;;;5043772;28;20109;-66
2023/09/17 03:28:30;;;;;;;91.03;86.30;;;;;;;;;;5036126;28;20100;-67
2023/09/17 03:30:56;;;;;;;91.25;86.43;;;;;;;;;;5039728;28;20037;-67
2023/09/17 03:33:22;;;;;;;95.22;90.22;;;;;;;;;;5040012;28;20509;-66
2023/09/17 03:35:48;;;;;;;94.80;89.90;;;;;;;;;;5041052;28;20486;-67
2023/09/17 03:38:13;;;;;;;94.75;89.82;;;;;;;;;;5040539;28;20068;-66
2023/09/17 03:40:39;;;;;;;96.45;91.45;;;;;;;;;;5039949;28;20087;-63
2023/09/17 03:43:05;;;;;;;92.90;87.97;;;;;;;;;;5039426;28;20092;-68
2023/09/17 03:45:31;;;;;;;92.65;87.88;;;;;;;;;;5038918;28;20651;-66
2023/09/17 03:47:56;;;;;;;98.35;93.25;;;;;;;;;;5041048;28;20022;-67
2023/09/17 03:50:23;;;;;;;94.55;89.65;;;;;;;;;;5042277;28;20068;-67
2023/09/17 03:52:52;;;;;;;96.10;90.95;;;;;;;;;;5039589;28;20091;-67
2023/09/17 03:55:18;;;;;;;95.10;90.13;;;;;;;;;;5039610;28;20021;-66
2023/09/17 03:57:43;;;;;;;93.70;88.85;;;;;;;;;;5042514;28;20198;-67
2023/09/17 04:00:14;;;;;;;94.38;89.53;;;;;;;;;;5037569;28;20514;-67
2023/09/17 04:02:41;;;;;;;86.82;82.38;;;;;;;;;;5040001;28;20029;-62
2023/09/17 04:05:10;;;;;;;84.63;80.28;;;;;;;;;;5038501;28;20033;-63
2023/09/17 04:07:37;;;;;;;87.60;83.07;;;;;;;;;;5037589;28;20037;-62
2023/09/17 04:10:05;;;;;;;85.35;80.90;;;;;;;;;;5039307;28;20092;-63
2023/09/17 04:12:35;;;;;;;84.15;79.85;;;;;;;;;;5041088;28;20467;-66
2023/09/17 04:15:02;;;;;;;81.23;77.00;;;;;;;;;;5024399;28;20063;-63
2023/09/17 04:17:28;;;;;;;84.35;80.00;;;;;;;;;;5039811;28;20044;-62
2023/09/17 04:19:55;;;;;;;84.72;80.07;;;;;;;;;;5038982;28;20498;-62
2023/09/17 04:22:20;;;;;;;89.38;84.78;;;;;;;;;;5036814;28;20510;-62
2023/09/17 04:24:46;;;;;;;90.55;85.85;;;;;;;;;;5023054;28;20084;-63
2023/09/17 04:27:12;;;;;;;92.85;88.00;;;;;;;;;;5038635;28;20025;-67
2023/09/17 04:29:38;;;;;;;92.82;87.97;;;;;;;;;;5038390;28;20048;-63
2023/09/17 04:32:03;;;;;;;92.28;87.47;;;;;;;;;;5039046;28;20025;-66
2023/09/17 04:34:29;;;;;;;92.28;87.55;;;;;;;;;;5040315;28;20052;-66
2023/09/17 04:36:58;;;;;;;85.30;80.85;;;;;;;;;;5041032;28;20099;-63
2023/09/17 04:39:27;;;;;;;90.38;85.68;;;;;;;;;;5037931;28;20044;-62
2023/09/17 04:41:53;;;;;;;91.78;87.00;;;;;;;;;;5036417;28;20040;-62
2023/09/17 04:44:18;;;;;;;95.32;90.35;;;;;;;;;;5038797;28;21072;-67
2023/09/17 04:46:44;;;;;;;94.15;89.25;;;;;;;;;;5040602;28;20124;-62
2023/09/17 04:49:10;;;;;;;91.60;86.93;;;;;;;;;;5040529;28;20146;-62
2023/09/17 04:51:35;;;;;;;93.05;88.25;;;;;;;;;;5051811;28;20037;-62
2023/09/17 04:54:04;;;;;;;92.88;88.00;;;;;;;;;;5037971;28;20047;-62
2023/09/17 04:56:31;;;;;;;96.40;91.32;;;;;;;;;;5036716;28;20030;-62
2023/09/17 04:59:00;;;;;;;92.07;87.22;;;;;;;;;;5036271;28;20139;-66
2023/09/17 05:01:26;;;;;;;88.88;84.22;;;;;;;;;;5053184;28;20048;-66
2023/09/17 05:03:53;;;;;;;95.13;90.10;;;;;;;;;;5039721;28;20523;-66
2023/09/17 05:06:19;;;;;;;99.97;94.82;;;;;;;;;;5017726;28;20087;-66
2023/09/17 05:08:45;;;;;;;98.60;93.50;;;;;;;;;;5035012;28;20037;-62
2023/09/17 05:11:11;;;;;;;100.07;94.88;;;;;;;;;;5024257;28;20036;-62
2023/09/17 05:13:36;;;;;;;102.40;97.03;;;;;;;;;;5039300;28;20039;-62
2023/09/17 05:16:03;;;;;;;108.78;103.10;;;;;;;;;;5037743;28;20076;-62
2023/09/17 05:18:29;;;;;;;104.28;98.85;;;;;;;;;;5037310;28;20596;-66
2023/09/17 05:20:54;;;;;;;103.80;98.40;;;;;;;;;;5035540;28;20041;-67
2023/09/17 05:23:23;;;;;;;99.85;94.68;;;;;;;;;;5037350;28;20040;-67
2023/09/17 05:25:49;;;;;;;105.72;100.28;;;;;;;;;;5036378;28;20140;-67
2023/09/17 05:28:15;;;;;;;100.07;94.68;;;;;;;;;;5036582;28;20096;-66
2023/09/17 05:30:41;;;;;;;101.10;95.85;;;;;;;;;;5037560;28;20547;-62
2023/09/17 05:33:06;;;;;;;94.30;89.45;;;;;;;;;;5038679;28;20371;-66
2023/09/17 05:35:34;;;;;;;95.10;90.13;;;;;;;;;;5038293;28;20043;-62
2023/09/17 05:38:00;;;;;;;92.57;87.75;;;;;;;;;;5038140;28;20036;-62
2023/09/17 05:40:26;;;;;;;95.03;90.03;;;;;;;;;;5040828;28;20404;-62
2023/09/17 05:42:52;;;;;;;95.00;89.78;;;;;;;;;;5023266;28;20091;-67
2023/09/17 05:45:18;;;;;;;92.55;87.45;;;;;;;;;;5036880;28;20045;-68
2023/09/17 05:47:43;;;;;;;96.82;91.68;;;;;;;;;;5041797;28;20036;-68
2023/09/17 05:50:10;;;;;;;91.43;86.68;;;;;;;;;;5020201;28;20197;-68
2023/09/17 05:52:36;;;;;;;93.05;88.25;;;;;;;;;;5039637;28;20099;-63
2023/09/17 05:55:06;;;;;;;103.95;98.47;;;;;;;;;;5036423;28;20032;-62
2023/09/17 05:57:33;;;;;;;107.35;101.78;;;;;;;;;;5038274;28;20416;-63
2023/09/17 06:00:00;;;;;;;106.45;100.88;;;;;;;;;;5047997;28;20033;-63
2023/09/17 06:02:26;;;;;;;103.13;97.75;;;;;;;;;;5041251;28;20024;-62
2023/09/17 06:04:55;;;;;;;105.07;99.55;;;;;;;;;;5040445;28;20148;-68
2023/09/17 06:07:21;;;;;;;101.35;96.05;;;;;;;;;;5026510;28;20444;-68
2023/09/17 06:09:46;;;;;;;103.72;98.35;;;;;;;;;;5039425;28;20037;-66
2023/09/17 06:12:12;;;;;;;107.18;101.63;;;;;;;;;;5041360;28;20114;-67
2023/09/17 06:14:39;;;;;;;102.07;96.68;;;;;;;;;;5041218;28;20043;-62
2023/09/17 06:17:05;;;;;;;96.32;91.38;;;;;;;;;;5022953;28;20060;-67
2023/09/17 06:19:32;;;;;;;95.82;90.80;;;;;;;;;;5041560;28;20033;-67
2023/09/17 06:21:58;;;;;;;94.38;89.47;;;;;;;;;;5041741;28;20124;-61
2023/09/17 06:24:24;;;;;;;98.57;93.43;;;;;;;;;;5039500;28;20116;-62
2023/09/17 06:26:49;;;;;;;86.07;81.68;;;;;;;;;;5041194;28;20124;-61
2023/09/17 06:29:16;;;;;;;75.13;71.18;;;;;;;;;;5041784;28;20071;-61
2023/09/17 06:31:42;;;;;;;80.85;76.70;;;;;;;;;;5040573;28;20037;-67
2023/09/17 06:34:08;;;;;;;64.15;60.72;;;;;;;;;;5042894;28;20111;-67
2023/09/17 06:36:33;;;;;;;63.92;60.63;;;;;;;;;;5041249;28;20476;-66
2023/09/17 06:38:58;;;;;;;59.13;56.05;;;;;;;;;;5041287;28;20037;-67
2023/09/17 06:41:24;;;;;;;58.30;55.33;;;;;;;;;;5040765;28;20447;-61
2023/09/17 06:43:50;;;;;;;42.55;40.30;;;;;;;;;;5041491;28;20048;-61
2023/09/17 06:46:15;;;;;;;40.10;37.88;;;;;;;;;;5036738;28;20041;-61
2023/09/17 06:48:41;;;;;;;36.45;34.35;;;;;;;;;;5039753;28;20041;-65
2023/09/17 06:51:06;;;;;;;36.70;34.75;;;;;;;;;;5023451;28;20064;-61
2023/09/17 06:53:32;;;;;;;44.22;41.70;;;;;;;;;;5021619;28;20061;-61
2023/09/17 06:55:58;;;;;;;37.97;35.85;;;;;;;;;;5039535;28;20051;-62
2023/09/17 06:58:24;;;;;;;32.38;30.52;;;;;;;;;;5040815;28;20490;-61
2023/09/17 07:00:49;;;;;;;33.53;31.70;;;;;;;;;;5037571;28;20061;-62
2023/09/17 07:03:14;;;;;;;32.80;30.98;;;;;;;;;;5039964;28;20120;-62
2023/09/17 07:05:40;;;;;;;39.75;37.45;;;;;;;;;;5039098;28;20040;-62
2023/09/17 07:08:06;;;;;;;36.50;34.45;;;;;;;;;;5040551;28;20042;-62
2023/09/17 07:10:32;;;;;;;37.28;35.30;;;;;;;;;;5038834;28;20029;-64
2023/09/17 07:12:58;;;;;;;42.80;40.45;;;;;;;;;;5041184;28;20456;-64
2023/09/17 07:15:25;;;;;;;40.85;38.53;;;;;;;;;;5040142;28;20047;-62
2023/09/17 07:17:52;;;;;;;42.38;39.92;;;;;;;;;;5040119;28;20056;-63
2023/09/17 07:20:19;;;;;;;38.92;36.72;;;;;;;;;;5039440;28;20045;-63
2023/09/17 07:22:45;;;;;;;46.08;43.65;;;;;;;;;;5025201;28;20022;-63
2023/09/17 07:25:11;;;;;;;47.78;45.25;;;;;;;;;;5026217;28;20042;-67
2023/09/17 07:27:37;;;;;;;47.30;44.50;;;;;;;;;;5036159;28;20155;-63
2023/09/17 07:30:03;;;;;;;52.38;49.65;;;;;;;;;;5036582;28;20025;-63
2023/09/17 07:32:29;;;;;;;49.60;46.85;;;;;;;;;;5039091;28;20029;-63
2023/09/17 07:34:55;;;;;;;72.22;68.28;;;;;;;;;;5036985;28;20477;-63
2023/09/17 07:37:21;;;;;;;66.43;63.05;;;;;;;;;;5040063;28;20048;-63
2023/09/17 07:39:49;;;;;;;69.47;65.93;;;;;;;;;;5024251;28;20038;-62
2023/09/17 07:42:15;;;;;;;90.35;85.78;;;;;;;;;;5044581;28;20036;-67
2023/09/17 07:44:40;;;;;;;77.22;72.90;;;;;;;;;;5023464;28;20435;-65
2023/09/17 07:47:08;;;;;;;87.85;83.45;;;;;;;;;;5026779;28;20131;-68
2023/09/17 07:49:35;;;;;;;128.20;121.82;;;;;;;;;;5022896;28;20435;-68
2023/09/17 07:52:00;;;;;;;141.55;134.52;;;;;;;;;;5035870;28;20025;-68
2023/09/17 07:54:26;;;;;;;142.45;135.45;;;;;;;;;;5011664;28;20044;-66
2023/09/17 07:56:52;;;;;;;188.90;179.68;;;;;;;;;;5040637;28;20059;-62
2023/09/17 07:59:17;;;;;;;216.73;206.18;;;;;;;;;;5039193;28;20551;-63
2023/09/17 08:01:44;;;;;;;233.30;221.68;;;;;;;;;;5040245;28;20029;-63
2023/09/17 08:04:11;;;;;;;229.25;218.00;;;;;;;;;;5035289;28;20080;-66
2023/09/17 08:06:36;;;;;;;227.00;215.50;;;;;;;;;;5037878;28;20045;-67
2023/09/17 08:09:02;;;;;;;254.77;242.23;;;;;;;;;;5039563;28;20387;-67
2023/09/17 08:11:29;;;;;;;300.98;286.10;;;;;;;;;;5036589;28;20032;-67
2023/09/17 08:13:54;;;;;;;317.58;301.65;;;;;;;;;;5037689;28;20059;-67
2023/09/17 08:16:20;;;;;;;352.67;334.35;;;;;;;;;;5056116;28;20033;-67
2023/09/17 08:18:46;;;;;;;358.60;340.52;;;;;;;;;;5022661;28;20120;-68
2023/09/17 08:21:12;;;;;;;371.02;352.20;;;;;;;;;;5053451;28;20120;-68
2023/09/17 08:23:37;;;;;;;367.48;348.90;;;;;;;;;;5020849;28;20071;-64
2023/09/17 08:26:05;;;;;;;393.27;373.13;;;;;;;;;;5023814;28;20040;-63
2023/09/17 08:28:30;;;;;;;265.55;252.65;;;;;;;;;;5025086;28;20475;-64
2023/09/17 08:30:56;;;;;;;323.17;306.63;;;;;;;;;;5020655;28;20083;-63
2023/09/17 08:33:21;;;;;;;371.45;352.73;;;;;;;;;;5037272;28;20075;-63
2023/09/17 08:35:46;;;;;;;198.63;188.90;;;;;;;;;;5037821;28;20041;-67
2023/09/17 08:38:12;;;;;;;210.07;199.77;;;;;;;;;;5038135;28;20098;-64
2023/09/17 08:40:38;;;;;;;154.60;146.75;;;;;;;;;;5036564;28;20124;-63
2023/09/17 08:43:04;;;;;;;112.25;106.72;;;;;;;;;;5036765;28;20037;-64
2023/09/17 08:45:31;;;;;;;85.15;80.93;;;;;;;;;;5035126;28;20036;-64
2023/09/17 08:47:59;;;;;;;120.05;114.05;;;;;;;;;;5037033;28;20043;-64
2023/09/17 08:50:31;;;;;;;107.88;102.45;;;;;;;;;;5042053;28;20025;-68
2023/09/17 08:53:02;;;;;;;115.18;109.45;;;;;;;;;;5037072;28;20069;-64
2023/09/17 08:55:28;;;;;;;94.68;89.97;;;;;;;;;;5038122;28;20079;-63
2023/09/17 08:58:01;;;;;;;101.88;96.80;;;;;;;;;;5033579;28;20057;-64
2023/09/17 09:00:32;;;;;;;86.35;82.05;;;;;;;;;;5041750;28;20459;-69
2023/09/17 09:03:01;;;;;;;79.35;75.43;;;;;;;;;;5035726;28;20097;-68
2023/09/17 09:05:27;;;;;;;87.70;83.32;;;;;;;;;;5025745;28;20048;-64
2023/09/17 09:07:55;;;;;;;86.90;82.53;;;;;;;;;;5021925;28;20393;-67
2023/09/17 09:10:21;;;;;;;106.28;100.95;;;;;;;;;;5037390;28;20104;-67
2023/09/17 09:12:47;;;;;;;84.95;80.68;;;;;;;;;;5039438;28;20109;-67
2023/09/17 09:15:13;;;;;;;93.88;89.22;;;;;;;;;;5036047;28;20043;-64
2023/09/17 09:17:39;;;;;;;108.40;102.88;;;;;;;;;;5036064;28;20494;-63
2023/09/17 09:20:09;;;;;;;82.95;78.78;;;;;;;;;;5021577;28;20119;-68
2023/09/17 09:22:35;;;;;;;117.10;111.32;;;;;;;;;;5036819;28;20036;-64
2023/09/17 09:25:01;;;;;;;142.35;135.20;;;;;;;;;;5023293;28;20113;-64
2023/09/17 09:27:27;;;;;;;122.50;116.40;;;;;;;;;;5023653;28;20029;-67
2023/09/17 09:29:53;;;;;;;114.13;108.20;;;;;;;;;;5033621;28;20080;-66
2023/09/17 09:32:18;;;;;;;102.97;97.80;;;;;;;;;;5035856;28;20034;-63
2023/09/17 09:34:46;;;;;;;130.10;123.68;;;;;;;;;;5038179;28;20106;-66
2023/09/17 09:37:12;;;;;;;95.10;90.32;;;;;;;;;;5036870;28;20044;-62
2023/09/17 09:39:38;;;;;;;103.53;98.38;;;;;;;;;;5032837;28;20029;-67
2023/09/17 09:42:05;;;;;;;89.00;84.57;;;;;;;;;;5040840;28;20090;-67
2023/09/17 09:44:31;;;;;;;118.70;112.75;;;;;;;;;;5021229;28;20033;-67
2023/09/17 09:46:58;;;;;;;100.78;95.75;;;;;;;;;;5038272;28;20045;-67
2023/09/17 09:49:24;;;;;;;177.88;169.15;;;;;;;;;;5034224;28;20037;-67
2023/09/17 09:51:51;;;;;;;185.38;176.35;;;;;;;;;;5038061;28;20029;-63
2023/09/17 09:54:17;;;;;;;217.02;206.45;;;;;;;;;;5039056;28;20136;-67
2023/09/17 09:56:43;;;;;;;236.20;224.75;;;;;;;;;;5037059;28;20120;-63
2023/09/17 09:59:08;;;;;;;258.58;246.00;;;;;;;;;;5036772;28;20041;-63
2023/09/17 10:01:38;;;;;;;197.80;188.18;;;;;;;;;;5036420;28;20033;-67
2023/09/17 10:04:09;;;;;;;198.70;188.98;;;;;;;;;;5034807;28;20428;-67
2023/09/17 10:06:36;;;;;;;170.88;162.43;;;;;;;;;;5039377;28;20045;-64
2023/09/17 10:09:02;;;;;;;165.32;157.20;;;;;;;;;;5037277;28;20040;-68
2023/09/17 10:11:29;;;;;;;188.88;179.57;;;;;;;;;;5035977;28;20071;-62
2023/09/17 10:14:04;;;;;;;174.80;166.23;;;;;;;;;;5036074;28;20029;-62
2023/09/17 10:16:30;;;;;;;154.98;147.10;;;;;;;;;;5037259;28;20025;-67
2023/09/17 10:18:57;;;;;;;152.73;145.13;;;;;;;;;;5036862;28;20104;-67
2023/09/17 10:21:26;;;;;;;137.18;130.38;;;;;;;;;;5040155;28;20337;-67
2023/09/17 10:23:53;;;;;;;155.65;148.02;;;;;;;;;;5037199;28;20037;-63
2023/09/17 10:26:22;;;;;;;141.38;134.40;;;;;;;;;;5036667;28;20069;-63
2023/09/17 10:28:48;;;;;;;211.52;201.32;;;;;;;;;;5036920;28;20463;-66
2023/09/17 10:31:15;;;;;;;140.35;133.38;;;;;;;;;;5037161;28;20059;-66
2023/09/17 10:33:42;;;;;;;173.57;164.85;;;;;;;;;;5035961;28;20041;-66
2023/09/17 10:36:09;;;;;;;146.82;139.55;;;;;;;;;;5035728;28;20033;-67
2023/09/17 10:38:36;;;;;;;212.50;202.18;;;;;;;;;;5037751;28;20052;-66
2023/09/17 10:41:05;;;;;;;151.48;144.05;;;;;;;;;;5034514;28;20033;-67
2023/09/17 10:43:34;;;;;;;114.67;109.03;;;;;;;;;;5036563;28;20040;-67
2023/09/17 10:46:01;;;;;;;183.10;174.13;;;;;;;;;;5038110;28;20036;-62
2023/09/17 10:48:28;;;;;;;167.82;159.60;;;;;;;;;;5037346;28;20044;-67
2023/09/17 10:50:54;;;;;;;199.38;189.63;;;;;;;;;;5040493;28;20068;-63
2023/09/17 10:53:20;;;;;;;207.40;197.38;;;;;;;;;;5038895;28;20021;-68
2023/09/17 10:55:54;;;;;;;210.23;199.93;;;;;;;;;;5037951;28;20270;-63
2023/09/17 10:58:35;;;;;;;217.40;206.38;;;;;;;;;;5041851;28;20064;-65
2023/09/17 11:01:02;;;;;;;209.23;199.02;;;;;;;;;;5038988;28;20037;-68
2023/09/17 11:03:31;;;;;;;202.07;192.23;;;;;;;;;;5037087;28;20418;-68
2023/09/17 11:06:01;;;;;;;202.68;192.77;;;;;;;;;;5035424;28;20536;-65
2023/09/17 11:08:27;;;;;;;;;;;;;;;;;;5039407;28;20097;-68
2023/09/17 11:10:52;;;;;;;212.25;201.95;;;;;;;;;;5023971;28;19920;-73
2023/09/17 11:13:19;;;;;;;215.38;204.90;;;;;;;;;;5043504;28;20123;-71
2023/09/17 11:15:44;;;;;;;211.57;201.30;;;;;;;;;;5037150;28;20043;-71
2023/09/17 11:18:11;;;;;;;215.00;204.48;;;;;;;;;;5041407;28;20029;-71
2023/09/17 11:20:56;;;;;;;186.43;177.18;;;;;;;;;;5038033;28;20033;-72
2023/09/17 11:23:45;;;;;;;181.95;173.07;;;;;;;;;;5037471;28;20033;-70
2023/09/17 11:26:15;;;;;;;154.63;147.00;;;;;;;;;;5037196;28;20076;-70
2023/09/17 11:28:40;;;;;;;;;;;;;;;;;;5038331;28;20033;-70
2023/09/17 11:31:09;;;;;;;210.20;199.98;;;;;;;;;;5038153;28;20036;-71
2023/09/17 11:33:38;;;;;;;187.88;178.70;;;;;;;;;;5039420;28;20075;-70
2023/09/17 11:36:04;;;;;;;199.48;189.73;;;;;;;;;;5025854;28;20029;-70
2023/09/17 11:38:30;;;;;;;197.95;188.30;;;;;;;;;;5034540;28;20483;-70
2023/09/17 11:41:06;;;;;;;195.68;186.07;;;;;;;;;;5024419;28;20098;-73
2023/09/17 11:43:42;;;;;;;210.20;199.98;;;;;;;;;;5025222;28;20021;-69
2023/09/17 11:46:08;;;;;;;189.63;180.38;;;;;;;;;;5035815;28;20041;-71
2023/09/17 11:48:35;;;;;;;195.75;186.07;;;;;;;;;;5035648;28;20033;-71
2023/09/17 11:51:27;;;;;;;193.95;184.00;;;;;;;;;;5039555;28;20029;-70
2023/09/17 11:54:04;;;;;;;182.25;173.27;;;;;;;;;;5019890;28;20091;-72
2023/09/17 11:56:31;;;;;;;195.02;185.45;;;;;;;;;;5037062;28;20051;-72
2023/09/17 11:59:04;;;;;;;202.82;192.93;;;;;;;;;;5025698;28;20036;-73
2023/09/17 12:01:32;;;;;;;158.50;150.65;;;;;;;;;;5040641;28;20741;-72
2023/09/17 12:03:58;;;;;;;144.32;137.18;;;;;;;;;;5037562;28;20038;-71
2023/09/17 12:06:26;;;;;;;178.57;169.82;;;;;;;;;;5036525;28;20132;-73
2023/09/17 12:08:52;;;;;;;163.85;155.75;;;;;;;;;;5036872;28;20051;-68
2023/09/17 12:11:24;;;;;;;174.93;166.25;;;;;;;;;;5022097;28;20044;-70
2023/09/17 12:13:53;;;;;;;121.93;115.85;;;;;;;;;;5037321;28;20037;-69
2023/09/17 12:16:27;;;;;;;182.32;173.40;;;;;;;;;;5037224;28;20056;-68
2023/09/17 12:18:54;;;;;;;141.13;134.15;;;;;;;;;;5034446;28;20103;-70
2023/09/17 12:21:20;;;;;;;142.65;135.60;;;;;;;;;;5037324;28;20024;-70
2023/09/17 12:26:35;;;;;;;118.55;112.70;;;;;;;;;;5036365;28;20364;-70
2023/09/17 12:29:01;;;;;;;215.43;205.00;;;;;;;;;;5047850;28;20126;-67
2023/09/17 12:31:26;;;;;;;208.50;197.82;;;;;;;;;;5033184;28;20067;-67
2023/09/17 12:33:52;;;;;;;164.73;156.52;;;;;;;;;;5036940;28;20041;-67
2023/09/17 12:36:19;;;;;;;189.60;180.23;;;;;;;;;;5037658;28;20033;-67
2023/09/17 12:38:44;;;;;;;181.52;172.38;;;;;;;;;;5032413;28;20539;-67
2023/09/17 12:41:12;;;;;;;101.93;96.68;;;;;;;;;;5037962;28;20143;-68
2023/09/17 12:43:38;;;;;;;111.85;106.28;;;;;;;;;;5036566;28;20033;-67
2023/09/17 12:46:04;;;;;;;141.10;134.13;;;;;;;;;;5052459;28;20041;-67
2023/09/17 12:48:29;;;;;;;138.27;131.38;;;;;;;;;;5036768;28;20507;-67
2023/09/17 12:50:55;;;;;;;143.88;136.75;;;;;;;;;;5028690;28;20064;-67
2023/09/17 12:53:20;;;;;;;179.38;170.55;;;;;;;;;;5035407;28;20347;-67
2023/09/17 12:55:46;;;;;;;213.93;203.27;;;;;;;;;;5020259;28;20064;-67
2023/09/17 12:58:12;;;;;;;115.82;110.03;;;;;;;;;;5036179;28;20036;-67
2023/09/17 13:00:37;;;;;;;129.52;123.15;;;;;;;;;;5038457;28;20025;-67
2023/09/17 13:03:11;;;;;;;92.88;88.22;;;;;;;;;;5035445;28;20044;-67
2023/09/17 13:05:37;;;;;;;94.05;89.38;;;;;;;;;;5032946;28;20463;-67
2023/09/17 13:08:07;;;;;;;92.80;88.10;;;;;;;;;;5035878;28;20048;-68
2023/09/17 13:10:34;;;;;;;71.28;67.60;;;;;;;;;;5037665;28;20043;-67
2023/09/17 13:13:04;;;;;;;70.95;67.43;;;;;;;;;;5036016;28;20036;-67
2023/09/17 13:15:29;;;;;;;80.07;76.07;;;;;;;;;;5031902;28;20066;-68
2023/09/17 13:17:55;;;;;;;47.88;45.45;;;;;;;;;;5037825;28;20033;-67
2023/09/17 13:20:20;;;;;;;44.88;42.47;;;;;;;;;;5032521;28;20029;-67
2023/09/17 13:22:47;;;;;;;47.92;45.17;;;;;;;;;;5035519;28;20033;-67
2023/09/17 13:25:13;;;;;;;56.88;53.97;;;;;;;;;;5035484;28;20041;-68
2023/09/17 13:27:38;;;;;;;81.47;77.38;;;;;;;;;;5023009;28;20029;-67
2023/09/17 13:30:05;;;;;;;67.85;64.40;;;;;;;;;;5023252;28;20068;-68
2023/09/17 13:32:31;;;;;;;55.40;52.55;;;;;;;;;;5037811;28;20049;-67
2023/09/17 13:34:58;;;;;;;52.40;49.75;;;;;;;;;;5051413;28;20064;-67
2023/09/17 13:37:24;;;;;;;57.00;54.10;;;;;;;;;;5020486;28;20133;-67
2023/09/17 13:39:51;;;;;;;70.22;66.63;;;;;;;;;;5036808;28;20044;-68
2023/09/17 13:42:17;;;;;;;37.97;35.92;;;;;;;;;;5042486;28;20120;-69
2023/09/17 13:44:42;;;;;;;42.83;40.63;;;;;;;;;;5038010;28;20167;-68
2023/09/17 13:47:10;;;;;;;47.90;43.60;;;;;;;;;;5037690;28;20045;-67
2023/09/17 13:49:39;;;;;;;43.30;41.10;;;;;;;;;;5040867;28;20063;-67
2023/09/17 13:52:05;;;;;;;33.75;32.03;;;;;;;;;;5037574;28;20411;-68
2023/09/17 13:54:31;;;;;;;51.38;48.78;;;;;;;;;;5037737;28;20167;-68
2023/09/17 13:56:56;;;;;;;40.90;38.70;;;;;;;;;;5036901;28;20431;-67
2023/09/17 13:59:22;;;;;;;36.78;34.88;;;;;;;;;;5036125;28;20033;-68
2023/09/17 14:01:47;;;;;;;43.53;41.30;;;;;;;;;;5038171;28;20512;-68
2023/09/17 14:04:13;;;;;;;39.03;37.03;;;;;;;;;;5025483;28;20124;-71